Latest METAR Data

Below are the latest METARs ("Meteorological Services to Airmen Reports"), for RNAS Culdrose and Newquay Airport.

EGDR - RNAS Culdrose
Distance from station: SW 6mi, 9km
Updated: Wed, 23-Sep-2020 5:50pm BST
Nearby showers, Mostly cloudy
Nearby showers, Mostly cloudy
 Wind from W
Wind: W 10 mph , 17 km/h
Temperature: 52°F , 11°C
Dew Point: 46°F , 8°C
Humidity: 82%
Barometer: 29.59 inHg , 1002 hPa
Summary: Nearby Showers
Clouds: Mostly Cloudy
Visibility: 6 miles , 10 km
Cloud details: Few Clouds 1500 ft
Partly Cloudy 2500 ft
Mostly Cloudy 6000 ft
2020/09/23 16:50 EGDR 231650Z 26009KT 9999 VCSH FEW015 SCT025 BKN060 11/08 Q1002 TEMPO 2000 +SHRA SCT007 RMK WHT TEMPO YLO2
EGHQ - Newquay Airport
Distance from station: NE 21mi, 34km
Updated: Wed, 23-Sep-2020 5:50pm BST
Partly Cloudy
Partly Cloudy
 Wind from W
Wind: W 16 mph , 26 km/h
Temperature: 55°F , 13°C
Dew Point: 48°F , 9°C
Humidity: 77%
Barometer: 29.59 inHg , 1002 hPa
Clouds: Partly Cloudy
Visibility: 6 miles , 10 km
Cloud details: Partly Cloudy 2200 ft
2020/09/23 16:50 EGHQ 231650Z 26014KT 9999 SCT022 13/09 Q1002
 
EGTE - Exeter Airport
Distance from station: ENE 88mi, 141km
Updated: Wed, 23-Sep-2020 4:50pm BST
Few Clouds
Few Clouds
 Wind from W
Wind: W 17 mph , 28 km/h
Temperature: 59°F , 15°C
Dew Point: 46°F , 8°C
Humidity: 63%
Barometer: 29.53 inHg , 1000 hPa
Clouds: Few Clouds
Visibility: 6 miles , 10 km
Cloud details: Few Clouds 3000 ft
2020/09/23 15:50 EGTE 231550Z 27015KT 9999 FEW030 15/08 Q1000
EGHE - St Marys, IOS
Distance from station: W 51mi, 82km
Updated: Wed, 23-Sep-2020 5:50pm BST
Few Clouds
Few Clouds
 Wind from WNW
Wind: WNW 6 mph , 9 km/h
Temperature: 55°F , 13°C
Dew Point: 48°F , 9°C
Humidity: 77%
Barometer: 29.62 inHg , 1003 hPa
Clouds: Few Clouds
Visibility: 6 miles , 10 km
Cloud details: Few Clouds 1000 ft
2020/09/23 16:50 EGHE 231650Z 29005KT 9999 FEW010 13/09 Q1003

Metar display script from Saratoga-Weather.org

 

 

UK - WEATHER STATION TOPSITES - UK World Weather Websites

Copyright © Carnkie Weather 2009 - 2020.